sensor_id;sensor_type;location;lat;lon;timestamp;P1;durP1;ratioP1;P2;durP2;ratioP2
54909;SDS011;63189;51.240;9.964;2024-03-23T00:53:24;3.60;;;2.60;;
54909;SDS011;63189;51.240;9.964;2024-03-23T00:55:50;3.70;;;3.00;;
54909;SDS011;63189;51.240;9.964;2024-03-23T00:58:16;4.72;;;2.88;;
54909;SDS011;63189;51.240;9.964;2024-03-23T01:00:41;3.95;;;2.70;;
54909;SDS011;63189;51.240;9.964;2024-03-23T01:03:07;3.15;;;2.20;;
54909;SDS011;63189;51.240;9.964;2024-03-23T01:05:32;3.17;;;2.60;;
54909;SDS011;63189;51.240;9.964;2024-03-23T01:07:57;3.65;;;2.30;;
54909;SDS011;63189;51.240;9.964;2024-03-23T01:10:23;3.45;;;2.40;;
54909;SDS011;63189;51.240;9.964;2024-03-23T01:12:48;3.72;;;2.53;;
54909;SDS011;63189;51.240;9.964;2024-03-23T01:15:13;3.47;;;2.15;;
54909;SDS011;63189;51.240;9.964;2024-03-23T01:17:39;3.42;;;2.20;;
54909;SDS011;63189;51.240;9.964;2024-03-23T01:20:04;3.40;;;2.05;;
54909;SDS011;63189;51.240;9.964;2024-03-23T01:22:31;2.42;;;1.95;;
54909;SDS011;63189;51.240;9.964;2024-03-23T01:24:56;4.40;;;2.30;;
54909;SDS011;63189;51.240;9.964;2024-03-23T01:27:22;3.75;;;2.00;;
54909;SDS011;63189;51.240;9.964;2024-03-23T01:29:48;4.70;;;2.45;;
54909;SDS011;63189;51.240;9.964;2024-03-23T01:32:13;4.03;;;1.90;;
54909;SDS011;63189;51.240;9.964;2024-03-23T01:34:38;2.65;;;1.80;;
54909;SDS011;63189;51.240;9.964;2024-03-23T01:37:04;3.05;;;2.08;;
54909;SDS011;63189;51.240;9.964;2024-03-23T01:39:29;2.97;;;2.00;;
54909;SDS011;63189;51.240;9.964;2024-03-23T01:41:54;4.25;;;2.00;;
54909;SDS011;63189;51.240;9.964;2024-03-23T01:44:20;2.80;;;1.83;;
54909;SDS011;63189;51.240;9.964;2024-03-23T01:46:45;4.57;;;2.10;;
54909;SDS011;63189;51.240;9.964;2024-03-23T01:49:11;3.58;;;2.13;;
54909;SDS011;63189;51.240;9.964;2024-03-23T01:51:37;4.43;;;1.77;;
54909;SDS011;63189;51.240;9.964;2024-03-23T01:54:03;3.58;;;1.92;;
54909;SDS011;63189;51.240;9.964;2024-03-23T01:56:32;3.38;;;1.95;;
54909;SDS011;63189;51.240;9.964;2024-03-23T01:59:00;3.65;;;1.95;;
54909;SDS011;63189;51.240;9.964;2024-03-23T02:01:25;2.25;;;1.60;;
54909;SDS011;63189;51.240;9.964;2024-03-23T02:03:51;4.18;;;1.92;;
54909;SDS011;63189;51.240;9.964;2024-03-23T02:06:16;3.28;;;1.90;;
54909;SDS011;63189;51.240;9.964;2024-03-23T02:08:42;4.38;;;2.03;;
54909;SDS011;63189;51.240;9.964;2024-03-23T02:11:08;3.90;;;2.08;;
54909;SDS011;63189;51.240;9.964;2024-03-23T02:13:33;2.95;;;1.67;;
54909;SDS011;63189;51.240;9.964;2024-03-23T02:15:58;2.65;;;1.60;;
54909;SDS011;63189;51.240;9.964;2024-03-23T02:18:24;5.20;;;2.25;;
54909;SDS011;63189;51.240;9.964;2024-03-23T02:20:49;3.75;;;1.48;;
54909;SDS011;63189;51.240;9.964;2024-03-23T02:23:15;4.25;;;2.10;;
54909;SDS011;63189;51.240;9.964;2024-03-23T02:25:41;5.38;;;2.05;;
54909;SDS011;63189;51.240;9.964;2024-03-23T02:28:06;3.03;;;1.70;;
54909;SDS011;63189;51.240;9.964;2024-03-23T02:30:32;4.50;;;1.90;;
54909;SDS011;63189;51.240;9.964;2024-03-23T02:32:57;5.78;;;2.22;;
54909;SDS011;63189;51.240;9.964;2024-03-23T02:35:23;5.05;;;2.05;;
54909;SDS011;63189;51.240;9.964;2024-03-23T02:37:48;6.53;;;2.03;;
54909;SDS011;63189;51.240;9.964;2024-03-23T02:40:14;3.72;;;1.67;;
54909;SDS011;63189;51.240;9.964;2024-03-23T02:42:40;7.40;;;1.90;;
54909;SDS011;63189;51.240;9.964;2024-03-23T02:45:06;6.60;;;2.10;;
54909;SDS011;63189;51.240;9.964;2024-03-23T02:47:32;4.43;;;1.60;;
54909;SDS011;63189;51.240;9.964;2024-03-23T02:49:59;4.53;;;2.00;;
54909;SDS011;63189;51.240;9.964;2024-03-23T02:52:24;3.92;;;1.60;;
54909;SDS011;63189;51.240;9.964;2024-03-23T02:54:49;5.07;;;1.73;;
54909;SDS011;63189;51.240;9.964;2024-03-23T02:57:15;4.05;;;1.75;;
54909;SDS011;63189;51.240;9.964;2024-03-23T02:59:40;6.78;;;2.03;;
54909;SDS011;63189;51.240;9.964;2024-03-23T03:02:06;5.40;;;1.90;;
54909;SDS011;63189;51.240;9.964;2024-03-23T03:04:31;6.68;;;2.38;;
54909;SDS011;63189;51.240;9.964;2024-03-23T03:06:57;6.90;;;2.22;;
54909;SDS011;63189;51.240;9.964;2024-03-23T03:09:22;7.63;;;2.53;;
54909;SDS011;63189;51.240;9.964;2024-03-23T03:11:48;7.70;;;2.10;;
54909;SDS011;63189;51.240;9.964;2024-03-23T03:14:13;5.53;;;1.73;;
54909;SDS011;63189;51.240;9.964;2024-03-23T03:16:39;4.55;;;1.90;;
54909;SDS011;63189;51.240;9.964;2024-03-23T03:19:04;4.35;;;2.17;;
54909;SDS011;63189;51.240;9.964;2024-03-23T03:21:29;3.85;;;1.90;;
54909;SDS011;63189;51.240;9.964;2024-03-23T03:23:54;7.07;;;2.13;;
54909;SDS011;63189;51.240;9.964;2024-03-23T03:26:21;10.85;;;3.42;;
54909;SDS011;63189;51.240;9.964;2024-03-23T03:28:47;7.95;;;2.17;;
54909;SDS011;63189;51.240;9.964;2024-03-23T03:31:17;7.25;;;2.60;;
54909;SDS011;63189;51.240;9.964;2024-03-23T03:33:43;9.30;;;3.15;;
54909;SDS011;63189;51.240;9.964;2024-03-23T03:36:09;7.97;;;3.08;;
54909;SDS011;63189;51.240;9.964;2024-03-23T03:38:35;8.27;;;3.20;;
54909;SDS011;63189;51.240;9.964;2024-03-23T03:41:01;6.80;;;2.92;;
54909;SDS011;63189;51.240;9.964;2024-03-23T03:43:27;5.97;;;2.83;;
54909;SDS011;63189;51.240;9.964;2024-03-23T03:45:56;6.53;;;2.60;;
54909;SDS011;63189;51.240;9.964;2024-03-23T03:48:22;8.35;;;3.03;;
54909;SDS011;63189;51.240;9.964;2024-03-23T03:50:48;10.07;;;3.38;;
54909;SDS011;63189;51.240;9.964;2024-03-23T03:53:14;6.45;;;2.90;;
54909;SDS011;63189;51.240;9.964;2024-03-23T03:55:39;8.15;;;3.38;;
54909;SDS011;63189;51.240;9.964;2024-03-23T03:58:05;9.18;;;3.38;;
54909;SDS011;63189;51.240;9.964;2024-03-23T04:00:30;11.52;;;3.67;;
54909;SDS011;63189;51.240;9.964;2024-03-23T04:02:56;10.52;;;4.00;;
54909;SDS011;63189;51.240;9.964;2024-03-23T04:05:22;9.05;;;4.22;;
54909;SDS011;63189;51.240;9.964;2024-03-23T04:07:47;10.48;;;4.45;;
54909;SDS011;63189;51.240;9.964;2024-03-23T04:10:13;8.57;;;4.38;;
54909;SDS011;63189;51.240;9.964;2024-03-23T04:12:38;11.13;;;4.90;;
54909;SDS011;63189;51.240;9.964;2024-03-23T04:15:04;10.85;;;4.95;;
54909;SDS011;63189;51.240;9.964;2024-03-23T04:17:30;9.77;;;5.57;;
54909;SDS011;63189;51.240;9.964;2024-03-23T04:19:58;8.82;;;4.78;;
54909;SDS011;63189;51.240;9.964;2024-03-23T04:22:23;7.95;;;4.65;;
54909;SDS011;63189;51.240;9.964;2024-03-23T04:24:51;8.52;;;5.38;;
54909;SDS011;63189;51.240;9.964;2024-03-23T04:27:19;8.95;;;5.10;;
54909;SDS011;63189;51.240;9.964;2024-03-23T04:29:48;10.40;;;4.80;;
54909;SDS011;63189;51.240;9.964;2024-03-23T04:32:16;9.52;;;4.40;;
54909;SDS011;63189;51.240;9.964;2024-03-23T04:34:42;9.07;;;4.18;;
54909;SDS011;63189;51.240;9.964;2024-03-23T04:37:09;7.25;;;4.03;;
54909;SDS011;63189;51.240;9.964;2024-03-23T04:39:35;6.55;;;3.53;;
54909;SDS011;63189;51.240;9.964;2024-03-23T04:42:01;5.57;;;3.60;;
54909;SDS011;63189;51.240;9.964;2024-03-23T04:44:27;5.90;;;3.13;;
54909;SDS011;63189;51.240;9.964;2024-03-23T04:46:53;5.80;;;3.20;;
54909;SDS011;63189;51.240;9.964;2024-03-23T04:49:18;8.55;;;3.42;;
54909;SDS011;63189;51.240;9.964;2024-03-23T04:51:44;6.88;;;3.35;;
54909;SDS011;63189;51.240;9.964;2024-03-23T04:54:14;7.93;;;3.15;;
54909;SDS011;63189;51.240;9.964;2024-03-23T04:56:40;4.25;;;2.90;;
54909;SDS011;63189;51.240;9.964;2024-03-23T04:59:05;7.78;;;2.60;;
54909;SDS011;63189;51.240;9.964;2024-03-23T05:01:33;2.95;;;2.25;;
54909;SDS011;63189;51.240;9.964;2024-03-23T05:03:59;5.25;;;2.00;;
54909;SDS011;63189;51.240;9.964;2024-03-23T05:06:25;4.05;;;2.00;;
54909;SDS011;63189;51.240;9.964;2024-03-23T05:08:50;2.90;;;1.80;;
54909;SDS011;63189;51.240;9.964;2024-03-23T05:11:16;2.28;;;1.60;;
54909;SDS011;63189;51.240;9.964;2024-03-23T05:13:42;3.20;;;1.20;;
54909;SDS011;63189;51.240;9.964;2024-03-23T05:16:07;2.28;;;1.20;;
54909;SDS011;63189;51.240;9.964;2024-03-23T05:18:33;3.25;;;1.20;;
54909;SDS011;63189;51.240;9.964;2024-03-23T05:20:59;1.70;;;0.90;;
54909;SDS011;63189;51.240;9.964;2024-03-23T05:23:25;1.20;;;0.70;;
54909;SDS011;63189;51.240;9.964;2024-03-23T05:25:50;1.58;;;0.70;;
54909;SDS011;63189;51.240;9.964;2024-03-23T05:28:19;1.90;;;0.63;;
54909;SDS011;63189;51.240;9.964;2024-03-23T05:30:52;1.55;;;0.60;;
54909;SDS011;63189;51.240;9.964;2024-03-23T05:33:18;1.73;;;0.90;;
54909;SDS011;63189;51.240;9.964;2024-03-23T05:35:44;1.75;;;0.85;;
54909;SDS011;63189;51.240;9.964;2024-03-23T05:38:10;2.15;;;0.80;;
54909;SDS011;63189;51.240;9.964;2024-03-23T05:40:35;0.52;;;0.32;;
54909;SDS011;63189;51.240;9.964;2024-03-23T05:43:02;0.85;;;0.50;;
54909;SDS011;63189;51.240;9.964;2024-03-23T05:45:28;0.95;;;0.70;;
54909;SDS011;63189;51.240;9.964;2024-03-23T05:47:54;2.15;;;0.80;;
54909;SDS011;63189;51.240;9.964;2024-03-23T05:50:21;1.70;;;0.77;;
54909;SDS011;63189;51.240;9.964;2024-03-23T05:52:47;2.10;;;0.60;;
54909;SDS011;63189;51.240;9.964;2024-03-23T05:55:12;1.40;;;0.60;;
54909;SDS011;63189;51.240;9.964;2024-03-23T05:57:37;1.45;;;0.70;;
54909;SDS011;63189;51.240;9.964;2024-03-23T06:00:03;2.25;;;0.77;;
54909;SDS011;63189;51.240;9.964;2024-03-23T06:02:29;2.08;;;0.43;;
54909;SDS011;63189;51.240;9.964;2024-03-23T06:04:54;0.60;;;0.50;;
54909;SDS011;63189;51.240;9.964;2024-03-23T06:07:19;0.88;;;0.43;;
54909;SDS011;63189;51.240;9.964;2024-03-23T06:09:45;1.35;;;0.55;;
54909;SDS011;63189;51.240;9.964;2024-03-23T06:12:10;1.42;;;0.63;;
54909;SDS011;63189;51.240;9.964;2024-03-23T06:14:35;1.60;;;0.80;;
54909;SDS011;63189;51.240;9.964;2024-03-23T06:17:01;1.15;;;0.60;;
54909;SDS011;63189;51.240;9.964;2024-03-23T06:19:27;1.38;;;0.57;;
54909;SDS011;63189;51.240;9.964;2024-03-23T06:21:55;1.98;;;0.88;;
54909;SDS011;63189;51.240;9.964;2024-03-23T06:24:21;1.02;;;0.70;;
54909;SDS011;63189;51.240;9.964;2024-03-23T06:26:47;3.28;;;0.80;;
54909;SDS011;63189;51.240;9.964;2024-03-23T06:29:12;1.08;;;0.68;;
54909;SDS011;63189;51.240;9.964;2024-03-23T06:31:38;2.05;;;0.80;;
54909;SDS011;63189;51.240;9.964;2024-03-23T06:34:04;2.25;;;0.90;;
54909;SDS011;63189;51.240;9.964;2024-03-23T06:36:29;1.38;;;0.80;;
54909;SDS011;63189;51.240;9.964;2024-03-23T06:38:55;1.75;;;0.82;;
54909;SDS011;63189;51.240;9.964;2024-03-23T06:41:21;3.92;;;0.95;;
54909;SDS011;63189;51.240;9.964;2024-03-23T06:43:46;3.10;;;0.82;;
54909;SDS011;63189;51.240;9.964;2024-03-23T06:46:12;3.28;;;1.00;;
54909;SDS011;63189;51.240;9.964;2024-03-23T06:48:37;1.83;;;1.33;;
54909;SDS011;63189;51.240;9.964;2024-03-23T06:51:02;1.73;;;1.00;;
54909;SDS011;63189;51.240;9.964;2024-03-23T06:53:28;1.75;;;0.80;;
54909;SDS011;63189;51.240;9.964;2024-03-23T06:55:54;1.30;;;0.80;;
54909;SDS011;63189;51.240;9.964;2024-03-23T06:58:21;0.95;;;0.60;;
54909;SDS011;63189;51.240;9.964;2024-03-23T07:00:47;0.65;;;0.45;;
54909;SDS011;63189;51.240;9.964;2024-03-23T07:03:13;1.70;;;0.50;;
54909;SDS011;63189;51.240;9.964;2024-03-23T07:05:38;1.38;;;0.80;;
54909;SDS011;63189;51.240;9.964;2024-03-23T07:08:04;1.17;;;0.77;;
54909;SDS011;63189;51.240;9.964;2024-03-23T07:10:30;1.35;;;0.90;;
54909;SDS011;63189;51.240;9.964;2024-03-23T07:12:55;2.28;;;0.65;;
54909;SDS011;63189;51.240;9.964;2024-03-23T07:15:20;1.20;;;0.80;;
54909;SDS011;63189;51.240;9.964;2024-03-23T07:17:49;1.70;;;1.20;;
54909;SDS011;63189;51.240;9.964;2024-03-23T07:20:14;1.50;;;0.60;;
54909;SDS011;63189;51.240;9.964;2024-03-23T07:22:39;1.02;;;0.43;;
54909;SDS011;63189;51.240;9.964;2024-03-23T07:25:05;1.23;;;0.70;;
54909;SDS011;63189;51.240;9.964;2024-03-23T07:27:31;1.25;;;0.77;;
54909;SDS011;63189;51.240;9.964;2024-03-23T07:29:57;1.65;;;0.65;;
54909;SDS011;63189;51.240;9.964;2024-03-23T07:32:22;1.35;;;0.75;;
54909;SDS011;63189;51.240;9.964;2024-03-23T07:34:48;1.15;;;0.63;;
54909;SDS011;63189;51.240;9.964;2024-03-23T07:37:13;0.85;;;0.55;;
54909;SDS011;63189;51.240;9.964;2024-03-23T07:39:41;2.75;;;0.90;;
54909;SDS011;63189;51.240;9.964;2024-03-23T07:42:07;2.25;;;0.70;;
54909;SDS011;63189;51.240;9.964;2024-03-23T07:44:32;2.53;;;0.80;;
54909;SDS011;63189;51.240;9.964;2024-03-23T07:46:58;0.85;;;0.50;;
54909;SDS011;63189;51.240;9.964;2024-03-23T07:49:25;0.82;;;0.50;;
54909;SDS011;63189;51.240;9.964;2024-03-23T07:51:51;2.33;;;0.75;;
54909;SDS011;63189;51.240;9.964;2024-03-23T07:54:16;1.60;;;0.90;;
54909;SDS011;63189;51.240;9.964;2024-03-23T07:56:41;5.88;;;1.00;;
54909;SDS011;63189;51.240;9.964;2024-03-23T07:59:07;2.08;;;0.90;;
54909;SDS011;63189;51.240;9.964;2024-03-23T08:01:32;2.50;;;0.80;;
54909;SDS011;63189;51.240;9.964;2024-03-23T08:03:57;4.50;;;0.90;;
54909;SDS011;63189;51.240;9.964;2024-03-23T08:06:23;3.95;;;0.93;;
54909;SDS011;63189;51.240;9.964;2024-03-23T08:08:50;4.53;;;1.02;;
54909;SDS011;63189;51.240;9.964;2024-03-23T08:11:24;4.15;;;1.15;;
54909;SDS011;63189;51.240;9.964;2024-03-23T08:13:56;2.65;;;0.88;;
54909;SDS011;63189;51.240;9.964;2024-03-23T08:16:22;4.18;;;0.70;;
54909;SDS011;63189;51.240;9.964;2024-03-23T08:18:50;4.22;;;1.00;;
54909;SDS011;63189;51.240;9.964;2024-03-23T08:21:16;4.85;;;0.85;;
54909;SDS011;63189;51.240;9.964;2024-03-23T08:23:41;3.65;;;1.20;;
54909;SDS011;63189;51.240;9.964;2024-03-23T08:26:08;2.88;;;1.00;;
54909;SDS011;63189;51.240;9.964;2024-03-23T08:28:34;4.03;;;1.00;;
54909;SDS011;63189;51.240;9.964;2024-03-23T08:31:00;3.63;;;1.50;;
54909;SDS011;63189;51.240;9.964;2024-03-23T08:33:27;3.20;;;0.75;;
54909;SDS011;63189;51.240;9.964;2024-03-23T08:35:56;4.68;;;1.20;;
54909;SDS011;63189;51.240;9.964;2024-03-23T08:38:23;4.00;;;1.10;;
54909;SDS011;63189;51.240;9.964;2024-03-23T08:40:56;4.85;;;1.52;;
54909;SDS011;63189;51.240;9.964;2024-03-23T08:43:28;6.68;;;1.70;;
54909;SDS011;63189;51.240;9.964;2024-03-23T08:46:03;6.60;;;1.92;;
54909;SDS011;63189;51.240;9.964;2024-03-23T08:48:32;3.95;;;1.42;;
54909;SDS011;63189;51.240;9.964;2024-03-23T08:51:02;3.55;;;1.60;;
54909;SDS011;63189;51.240;9.964;2024-03-23T08:53:31;3.83;;;1.70;;
54909;SDS011;63189;51.240;9.964;2024-03-23T08:55:57;5.10;;;1.80;;
54909;SDS011;63189;51.240;9.964;2024-03-23T08:58:23;10.35;;;2.40;;
54909;SDS011;63189;51.240;9.964;2024-03-23T09:00:53;11.18;;;2.90;;
54909;SDS011;63189;51.240;9.964;2024-03-23T09:03:23;9.63;;;2.60;;
54909;SDS011;63189;51.240;9.964;2024-03-23T09:05:51;9.93;;;2.65;;
54909;SDS011;63189;51.240;9.964;2024-03-23T09:08:17;8.07;;;2.75;;
54909;SDS011;63189;51.240;9.964;2024-03-23T09:10:43;11.40;;;3.33;;
54909;SDS011;63189;51.240;9.964;2024-03-23T09:13:09;6.40;;;2.85;;
54909;SDS011;63189;51.240;9.964;2024-03-23T09:15:35;9.02;;;2.70;;
54909;SDS011;63189;51.240;9.964;2024-03-23T09:18:01;11.82;;;3.92;;
54909;SDS011;63189;51.240;9.964;2024-03-23T09:20:33;12.48;;;3.45;;
54909;SDS011;63189;51.240;9.964;2024-03-23T09:22:58;9.77;;;4.68;;
54909;SDS011;63189;51.240;9.964;2024-03-23T09:25:24;9.20;;;3.85;;
54909;SDS011;63189;51.240;9.964;2024-03-23T09:27:49;9.45;;;4.35;;
54909;SDS011;63189;51.240;9.964;2024-03-23T09:30:15;12.70;;;4.10;;
54909;SDS011;63189;51.240;9.964;2024-03-23T09:32:42;14.10;;;5.07;;
54909;SDS011;63189;51.240;9.964;2024-03-23T09:35:08;17.20;;;6.47;;
54909;SDS011;63189;51.240;9.964;2024-03-23T09:37:34;15.65;;;6.30;;
54909;SDS011;63189;51.240;9.964;2024-03-23T09:39:59;13.88;;;6.82;;
54909;SDS011;63189;51.240;9.964;2024-03-23T09:42:24;23.38;;;10.07;;
54909;SDS011;63189;51.240;9.964;2024-03-23T09:44:50;20.42;;;8.07;;
54909;SDS011;63189;51.240;9.964;2024-03-23T09:47:17;17.77;;;8.15;;
54909;SDS011;63189;51.240;9.964;2024-03-23T09:49:43;20.83;;;8.88;;
54909;SDS011;63189;51.240;9.964;2024-03-23T09:52:08;22.58;;;9.73;;
54909;SDS011;63189;51.240;9.964;2024-03-23T09:54:34;23.50;;;9.85;;
54909;SDS011;63189;51.240;9.964;2024-03-23T09:57:00;19.08;;;9.90;;
54909;SDS011;63189;51.240;9.964;2024-03-23T09:59:25;18.55;;;9.00;;
54909;SDS011;63189;51.240;9.964;2024-03-23T10:01:52;18.70;;;8.75;;
54909;SDS011;63189;51.240;9.964;2024-03-23T10:07:13;17.40;;;8.95;;
54909;SDS011;63189;51.240;9.964;2024-03-23T10:09:40;18.65;;;8.55;;
54909;SDS011;63189;51.240;9.964;2024-03-23T10:12:09;18.83;;;8.02;;
54909;SDS011;63189;51.240;9.964;2024-03-23T10:14:37;15.75;;;7.88;;
54909;SDS011;63189;51.240;9.964;2024-03-23T10:19:44;12.20;;;6.35;;
54909;SDS011;63189;51.240;9.964;2024-03-23T10:22:14;12.85;;;6.03;;
54909;SDS011;63189;51.240;9.964;2024-03-23T10:24:42;12.70;;;5.28;;
54909;SDS011;63189;51.240;9.964;2024-03-23T10:27:08;11.93;;;5.63;;
54909;SDS011;63189;51.240;9.964;2024-03-23T10:29:33;10.95;;;4.82;;
54909;SDS011;63189;51.240;9.964;2024-03-23T10:32:08;10.48;;;4.25;;
54909;SDS011;63189;51.240;9.964;2024-03-23T10:34:35;7.68;;;3.92;;
54909;SDS011;63189;51.240;9.964;2024-03-23T10:37:01;7.60;;;3.53;;
54909;SDS011;63189;51.240;9.964;2024-03-23T10:39:29;5.47;;;2.83;;
54909;SDS011;63189;51.240;9.964;2024-03-23T10:41:57;7.68;;;3.10;;
54909;SDS011;63189;51.240;9.964;2024-03-23T10:44:23;7.20;;;3.28;;
54909;SDS011;63189;51.240;9.964;2024-03-23T10:46:51;8.90;;;3.85;;
54909;SDS011;63189;51.240;9.964;2024-03-23T10:49:23;8.15;;;4.10;;
54909;SDS011;63189;51.240;9.964;2024-03-23T10:51:50;8.95;;;4.55;;
54909;SDS011;63189;51.240;9.964;2024-03-23T10:54:16;8.65;;;4.80;;
54909;SDS011;63189;51.240;9.964;2024-03-23T10:56:42;10.90;;;4.78;;
54909;SDS011;63189;51.240;9.964;2024-03-23T10:59:08;13.88;;;5.50;;
54909;SDS011;63189;51.240;9.964;2024-03-23T11:01:33;7.38;;;4.88;;
54909;SDS011;63189;51.240;9.964;2024-03-23T11:03:59;10.60;;;5.22;;
54909;SDS011;63189;51.240;9.964;2024-03-23T11:06:37;9.30;;;4.72;;
54909;SDS011;63189;51.240;9.964;2024-03-23T11:09:05;10.98;;;4.75;;
54909;SDS011;63189;51.240;9.964;2024-03-23T11:15:05;14.02;;;5.07;;
54909;SDS011;63189;51.240;9.964;2024-03-23T11:17:35;9.07;;;3.85;;
54909;SDS011;63189;51.240;9.964;2024-03-23T11:20:07;10.50;;;4.05;;
54909;SDS011;63189;51.240;9.964;2024-03-23T11:25:14;9.15;;;3.53;;
54909;SDS011;63189;51.240;9.964;2024-03-23T11:27:40;6.95;;;3.70;;
54909;SDS011;63189;51.240;9.964;2024-03-23T11:32:37;5.57;;;3.53;;
54909;SDS011;63189;51.240;9.964;2024-03-23T11:35:03;8.30;;;3.90;;
54909;SDS011;63189;51.240;9.964;2024-03-23T11:37:28;7.68;;;3.45;;
54909;SDS011;63189;51.240;9.964;2024-03-23T11:39:53;7.55;;;3.40;;
54909;SDS011;63189;51.240;9.964;2024-03-23T11:42:19;8.07;;;3.92;;
54909;SDS011;63189;51.240;9.964;2024-03-23T11:44:46;6.32;;;3.20;;
54909;SDS011;63189;51.240;9.964;2024-03-23T11:47:12;8.23;;;2.90;;
54909;SDS011;63189;51.240;9.964;2024-03-23T11:49:37;7.47;;;3.67;;
54909;SDS011;63189;51.240;9.964;2024-03-23T11:52:05;6.55;;;3.03;;
54909;SDS011;63189;51.240;9.964;2024-03-23T11:54:31;9.50;;;3.30;;
54909;SDS011;63189;51.240;9.964;2024-03-23T11:57:00;6.35;;;3.40;;
54909;SDS011;63189;51.240;9.964;2024-03-23T11:59:50;8.77;;;3.27;;
54909;SDS011;63189;51.240;9.964;2024-03-23T12:02:14;6.22;;;2.45;;
54909;SDS011;63189;51.240;9.964;2024-03-23T12:04:43;9.15;;;2.50;;
54909;SDS011;63189;51.240;9.964;2024-03-23T12:09:43;4.20;;;1.90;;
54909;SDS011;63189;51.240;9.964;2024-03-23T12:12:10;7.30;;;2.65;;
54909;SDS011;63189;51.240;9.964;2024-03-23T12:14:36;6.40;;;2.20;;
54909;SDS011;63189;51.240;9.964;2024-03-23T12:19:38;5.22;;;1.90;;
54909;SDS011;63189;51.240;9.964;2024-03-23T12:22:04;5.57;;;2.03;;
54909;SDS011;63189;51.240;9.964;2024-03-23T12:24:30;4.47;;;1.92;;
54909;SDS011;63189;51.240;9.964;2024-03-23T12:27:03;3.53;;;1.67;;
54909;SDS011;63189;51.240;9.964;2024-03-23T12:29:32;5.57;;;1.98;;
54909;SDS011;63189;51.240;9.964;2024-03-23T12:32:00;6.47;;;2.05;;
54909;SDS011;63189;51.240;9.964;2024-03-23T12:34:27;3.65;;;1.83;;
54909;SDS011;63189;51.240;9.964;2024-03-23T12:36:53;4.90;;;1.90;;
54909;SDS011;63189;51.240;9.964;2024-03-23T12:39:18;3.63;;;1.60;;
54909;SDS011;63189;51.240;9.964;2024-03-23T12:41:45;5.65;;;1.98;;
54909;SDS011;63189;51.240;9.964;2024-03-23T12:44:11;4.90;;;1.75;;
54909;SDS011;63189;51.240;9.964;2024-03-23T12:46:37;3.50;;;1.42;;
54909;SDS011;63189;51.240;9.964;2024-03-23T12:49:03;4.70;;;1.77;;
54909;SDS011;63189;51.240;9.964;2024-03-23T12:51:28;5.10;;;2.33;;
54909;SDS011;63189;51.240;9.964;2024-03-23T12:53:53;5.18;;;1.60;;
54909;SDS011;63189;51.240;9.964;2024-03-23T12:56:19;2.58;;;1.05;;
54909;SDS011;63189;51.240;9.964;2024-03-23T12:58:44;1.73;;;1.30;;
54909;SDS011;63189;51.240;9.964;2024-03-23T13:01:09;2.50;;;1.23;;
54909;SDS011;63189;51.240;9.964;2024-03-23T13:03:35;4.13;;;2.30;;
54909;SDS011;63189;51.240;9.964;2024-03-23T13:06:00;2.30;;;1.67;;
54909;SDS011;63189;51.240;9.964;2024-03-23T13:08:25;2.88;;;1.40;;
54909;SDS011;63189;51.240;9.964;2024-03-23T13:10:51;2.25;;;1.25;;
54909;SDS011;63189;51.240;9.964;2024-03-23T13:13:17;1.38;;;1.00;;
54909;SDS011;63189;51.240;9.964;2024-03-23T13:15:42;2.00;;;1.10;;
54909;SDS011;63189;51.240;9.964;2024-03-23T13:18:14;3.40;;;1.30;;
54909;SDS011;63189;51.240;9.964;2024-03-23T13:20:40;3.55;;;1.45;;
54909;SDS011;63189;51.240;9.964;2024-03-23T13:23:05;3.42;;;1.45;;
54909;SDS011;63189;51.240;9.964;2024-03-23T13:25:30;2.95;;;1.17;;
54909;SDS011;63189;51.240;9.964;2024-03-23T13:27:56;2.50;;;1.13;;
54909;SDS011;63189;51.240;9.964;2024-03-23T13:30:21;2.58;;;1.35;;
54909;SDS011;63189;51.240;9.964;2024-03-23T13:32:46;4.97;;;3.10;;
54909;SDS011;63189;51.240;9.964;2024-03-23T13:35:12;6.40;;;3.20;;
54909;SDS011;63189;51.240;9.964;2024-03-23T13:37:37;4.47;;;1.98;;
54909;SDS011;63189;51.240;9.964;2024-03-23T13:40:02;5.60;;;3.60;;
54909;SDS011;63189;51.240;9.964;2024-03-23T13:42:28;2.63;;;1.55;;
54909;SDS011;63189;51.240;9.964;2024-03-23T13:44:53;5.22;;;2.20;;
54909;SDS011;63189;51.240;9.964;2024-03-23T13:47:18;3.97;;;1.52;;
54909;SDS011;63189;51.240;9.964;2024-03-23T13:49:44;5.35;;;1.70;;
54909;SDS011;63189;51.240;9.964;2024-03-23T13:52:09;3.65;;;1.90;;
54909;SDS011;63189;51.240;9.964;2024-03-23T13:54:35;3.17;;;1.50;;
54909;SDS011;63189;51.240;9.964;2024-03-23T13:57:00;3.13;;;1.38;;
54909;SDS011;63189;51.240;9.964;2024-03-23T13:59:25;4.75;;;1.92;;
54909;SDS011;63189;51.240;9.964;2024-03-23T14:01:51;7.13;;;2.28;;
54909;SDS011;63189;51.240;9.964;2024-03-23T14:04:16;5.82;;;1.77;;
54909;SDS011;63189;51.240;9.964;2024-03-23T14:06:44;5.80;;;1.52;;
54909;SDS011;63189;51.240;9.964;2024-03-23T14:09:11;4.22;;;1.92;;
54909;SDS011;63189;51.240;9.964;2024-03-23T14:11:37;4.60;;;1.55;;
54909;SDS011;63189;51.240;9.964;2024-03-23T14:14:02;6.07;;;2.08;;
54909;SDS011;63189;51.240;9.964;2024-03-23T14:16:29;4.82;;;2.08;;
54909;SDS011;63189;51.240;9.964;2024-03-23T14:18:57;5.05;;;1.80;;
54909;SDS011;63189;51.240;9.964;2024-03-23T14:21:22;3.03;;;1.48;;
54909;SDS011;63189;51.240;9.964;2024-03-23T14:23:48;2.45;;;1.08;;
54909;SDS011;63189;51.240;9.964;2024-03-23T14:26:13;3.67;;;1.33;;
54909;SDS011;63189;51.240;9.964;2024-03-23T14:28:39;2.97;;;1.55;;
54909;SDS011;63189;51.240;9.964;2024-03-23T14:31:04;4.07;;;1.92;;
54909;SDS011;63189;51.240;9.964;2024-03-23T14:33:35;4.05;;;1.90;;
54909;SDS011;63189;51.240;9.964;2024-03-23T14:36:06;5.13;;;1.50;;
54909;SDS011;63189;51.240;9.964;2024-03-23T14:38:32;2.63;;;1.45;;
54909;SDS011;63189;51.240;9.964;2024-03-23T14:40:58;3.75;;;1.40;;
54909;SDS011;63189;51.240;9.964;2024-03-23T14:43:24;3.33;;;1.50;;
54909;SDS011;63189;51.240;9.964;2024-03-23T14:48:35;2.42;;;1.05;;
54909;SDS011;63189;51.240;9.964;2024-03-23T14:51:01;2.20;;;1.38;;
54909;SDS011;63189;51.240;9.964;2024-03-23T14:53:29;2.45;;;1.10;;
54909;SDS011;63189;51.240;9.964;2024-03-23T14:55:59;3.92;;;1.50;;
54909;SDS011;63189;51.240;9.964;2024-03-23T14:58:26;4.72;;;1.17;;
54909;SDS011;63189;51.240;9.964;2024-03-23T15:00:51;3.70;;;1.15;;
54909;SDS011;63189;51.240;9.964;2024-03-23T15:03:17;2.92;;;1.10;;
54909;SDS011;63189;51.240;9.964;2024-03-23T15:05:51;2.53;;;1.15;;
54909;SDS011;63189;51.240;9.964;2024-03-23T15:08:17;1.63;;;0.90;;
54909;SDS011;63189;51.240;9.964;2024-03-23T15:10:42;3.08;;;1.20;;
54909;SDS011;63189;51.240;9.964;2024-03-23T15:13:07;5.57;;;2.65;;
54909;SDS011;63189;51.240;9.964;2024-03-23T15:15:37;3.75;;;1.25;;
54909;SDS011;63189;51.240;9.964;2024-03-23T15:18:04;4.00;;;1.40;;
54909;SDS011;63189;51.240;9.964;2024-03-23T15:20:29;1.95;;;0.88;;
54909;SDS011;63189;51.240;9.964;2024-03-23T15:22:55;3.53;;;1.10;;
54909;SDS011;63189;51.240;9.964;2024-03-23T15:25:20;1.45;;;0.80;;
54909;SDS011;63189;51.240;9.964;2024-03-23T15:27:48;1.05;;;0.80;;
54909;SDS011;63189;51.240;9.964;2024-03-23T15:30:14;2.92;;;1.23;;
54909;SDS011;63189;51.240;9.964;2024-03-23T15:32:39;1.77;;;0.73;;
54909;SDS011;63189;51.240;9.964;2024-03-23T15:35:04;1.75;;;1.20;;
54909;SDS011;63189;51.240;9.964;2024-03-23T15:37:32;2.88;;;1.40;;
54909;SDS011;63189;51.240;9.964;2024-03-23T15:39:59;2.92;;;1.00;;
54909;SDS011;63189;51.240;9.964;2024-03-23T15:42:24;4.85;;;1.13;;
54909;SDS011;63189;51.240;9.964;2024-03-23T15:44:50;1.75;;;0.90;;
54909;SDS011;63189;51.240;9.964;2024-03-23T15:47:15;2.03;;;1.10;;
54909;SDS011;63189;51.240;9.964;2024-03-23T15:49:41;7.10;;;3.40;;
54909;SDS011;63189;51.240;9.964;2024-03-23T15:52:07;3.78;;;0.93;;
54909;SDS011;63189;51.240;9.964;2024-03-23T15:54:33;5.55;;;1.33;;